Time;durP1;ratioP1;P1;durP2;ratioP2;P2;SDS_P1;SDS_P2;PMS_P1;PMS_P2;Temp;Humidity;BMP_temperature;BMP_pressure;BME280_temperature;BME280_humidity;BME280_pressure;Samples;Min_cycle;Max_cycle;Signal;HPM_P1;HPM_P2
2023/04/18 00:01:55;;;;;;;10.83;8.93;;;;;;;;;;5113802;28;20489;-71
2023/04/18 00:04:22;;;;;;;10.10;8.97;;;;;;;;;;5113807;28;20457;-74
2023/04/18 00:06:51;;;;;;;12.93;10.00;;;;;;;;;;5114200;28;20453;-73
2023/04/18 00:09:18;;;;;;;12.67;9.27;;;;;;;;;;5114063;28;20541;-73
2023/04/18 00:11:45;;;;;;;15.00;9.40;;;;;;;;;;5113807;28;20472;-73
2023/04/18 00:14:12;;;;;;;10.27;7.97;;;;;;;;;;5113455;28;20544;-73
2023/04/18 00:16:39;;;;;;;14.53;9.80;;;;;;;;;;5113580;28;20510;-73
2023/04/18 00:19:07;;;;;;;9.37;8.23;;;;;;;;;;5113695;28;20453;-73
2023/04/18 00:21:34;;;;;;;11.27;8.63;;;;;;;;;;5113416;28;20962;-73
2023/04/18 00:24:03;;;;;;;9.37;8.30;;;;;;;;;;5113427;28;20507;-73
2023/04/18 00:26:30;;;;;;;11.00;9.30;;;;;;;;;;5113345;28;20446;-72
2023/04/18 00:28:57;;;;;;;13.07;9.90;;;;;;;;;;5113675;28;20450;-74
2023/04/18 00:31:24;;;;;;;13.60;9.70;;;;;;;;;;5113795;28;20466;-72
2023/04/18 00:33:51;;;;;;;9.60;8.60;;;;;;;;;;5113322;28;20946;-72
2023/04/18 00:36:19;;;;;;;12.07;9.83;;;;;;;;;;5113327;28;20457;-72
2023/04/18 00:38:46;;;;;;;12.07;9.20;;;;;;;;;;5113322;28;20450;-72
2023/04/18 00:41:14;;;;;;;13.97;9.13;;;;;;;;;;5113307;28;20942;-73
2023/04/18 00:43:41;;;;;;;11.57;8.37;;;;;;;;;;5113187;28;20601;-72
2023/04/18 00:46:09;;;;;;;13.43;9.50;;;;;;;;;;5113278;28;20466;-72
2023/04/18 00:48:37;;;;;;;10.50;8.10;;;;;;;;;;5113394;28;20977;-72
2023/04/18 00:51:05;;;;;;;10.80;9.20;;;;;;;;;;5113237;28;20450;-72
2023/04/18 00:53:32;;;;;;;10.33;8.53;;;;;;;;;;5112473;28;20453;-72
2023/04/18 00:55:59;;;;;;;11.80;9.20;;;;;;;;;;5113225;28;20449;-72
2023/04/18 00:58:28;;;;;;;13.57;10.23;;;;;;;;;;5113386;28;20449;-72
2023/04/18 01:00:55;;;;;;;10.50;9.03;;;;;;;;;;5113179;28;20457;-72
2023/04/18 01:03:22;;;;;;;12.60;9.27;;;;;;;;;;5113234;28;20493;-73
2023/04/18 01:05:50;;;;;;;13.43;10.00;;;;;;;;;;5113091;28;20460;-72
2023/04/18 01:08:18;;;;;;;11.30;8.53;;;;;;;;;;5113119;28;20450;-72
2023/04/18 01:10:45;;;;;;;10.40;8.23;;;;;;;;;;5113186;28;20453;-72
2023/04/18 01:13:13;;;;;;;9.70;7.30;;;;;;;;;;5113068;28;20470;-73
2023/04/18 01:15:42;;;;;;;10.90;8.83;;;;;;;;;;5112931;28;20492;-72
2023/04/18 01:18:16;;;;;;;12.40;9.10;;;;;;;;;;5112882;28;20489;-73
2023/04/18 01:20:45;;;;;;;14.30;10.03;;;;;;;;;;5113058;28;20451;-72
2023/04/18 01:23:12;;;;;;;12.43;9.63;;;;;;;;;;5112829;28;20489;-72
2023/04/18 01:25:41;;;;;;;10.83;8.63;;;;;;;;;;5112991;28;20802;-72
2023/04/18 01:28:08;;;;;;;12.23;8.83;;;;;;;;;;5112957;28;20813;-72
2023/04/18 01:30:35;;;;;;;11.60;9.60;;;;;;;;;;5113027;28;20454;-72
2023/04/18 01:33:03;;;;;;;11.93;9.43;;;;;;;;;;5115292;28;20462;-72
2023/04/18 01:35:30;;;;;;;13.77;10.20;;;;;;;;;;5116244;28;20458;-72
2023/04/18 01:37:57;;;;;;;13.90;9.77;;;;;;;;;;5116655;28;21008;-72
2023/04/18 01:40:25;;;;;;;11.93;9.60;;;;;;;;;;5116491;27;20449;-72
2023/04/18 01:42:53;;;;;;;15.70;11.33;;;;;;;;;;5116473;28;20493;-72
2023/04/18 01:45:21;;;;;;;14.03;10.00;;;;;;;;;;5116583;28;20844;-74
2023/04/18 01:47:48;;;;;;;14.37;10.43;;;;;;;;;;5116500;28;20464;-74
2023/04/18 01:50:16;;;;;;;12.40;9.73;;;;;;;;;;5116416;28;20544;-74
2023/04/18 01:52:45;;;;;;;13.83;10.03;;;;;;;;;;5116166;28;20810;-74
2023/04/18 01:55:12;;;;;;;16.43;11.37;;;;;;;;;;5116326;28;20460;-74
2023/04/18 01:57:39;;;;;;;15.90;10.40;;;;;;;;;;5116379;27;20922;-74
2023/04/18 02:00:09;;;;;;;14.27;10.40;;;;;;;;;;5116264;28;20458;-74
2023/04/18 02:02:36;;;;;;;15.33;11.47;;;;;;;;;;5116055;28;20501;-74
2023/04/18 02:05:03;;;;;;;14.67;10.90;;;;;;;;;;5116049;28;20456;-74
2023/04/18 02:07:31;;;;;;;12.87;9.30;;;;;;;;;;5116115;28;20930;-74
2023/04/18 02:09:58;;;;;;;15.00;11.30;;;;;;;;;;5116280;28;20445;-74
2023/04/18 02:12:25;;;;;;;18.30;12.17;;;;;;;;;;5116068;27;20466;-71
2023/04/18 02:14:53;;;;;;;13.63;9.80;;;;;;;;;;5116179;28;20852;-74
2023/04/18 02:17:22;;;;;;;14.90;11.00;;;;;;;;;;5116343;28;20456;-72
2023/04/18 02:19:50;;;;;;;18.00;11.93;;;;;;;;;;5115936;28;20450;-72
2023/04/18 02:22:18;;;;;;;13.07;10.43;;;;;;;;;;5116019;28;20474;-74
2023/04/18 02:24:45;;;;;;;14.27;11.33;;;;;;;;;;5116152;28;20461;-75
2023/04/18 02:27:12;;;;;;;16.77;11.63;;;;;;;;;;5116331;28;20452;-71
2023/04/18 02:29:40;;;;;;;15.37;10.23;;;;;;;;;;5115831;27;20522;-74
2023/04/18 02:32:07;;;;;;;20.43;12.20;;;;;;;;;;5116232;28;20474;-74
2023/04/18 02:34:36;;;;;;;16.27;10.90;;;;;;;;;;5115529;28;20487;-74
2023/04/18 02:37:03;;;;;;;15.30;11.10;;;;;;;;;;5115485;28;20454;-75
2023/04/18 02:39:31;;;;;;;18.30;13.30;;;;;;;;;;5115448;27;20969;-73
2023/04/18 02:41:58;;;;;;;18.70;13.83;;;;;;;;;;5115566;28;20462;-74
2023/04/18 02:44:25;;;;;;;15.43;11.10;;;;;;;;;;5114188;28;20518;-74
2023/04/18 02:46:52;;;;;;;15.97;11.00;;;;;;;;;;5115654;28;20456;-74
2023/04/18 02:49:19;;;;;;;22.07;11.30;;;;;;;;;;5115324;28;20547;-73
2023/04/18 02:51:48;;;;;;;14.50;10.80;;;;;;;;;;5115139;28;20481;-74
2023/04/18 02:54:15;;;;;;;14.40;11.70;;;;;;;;;;5114823;28;20455;-75
2023/04/18 02:56:42;;;;;;;13.50;11.00;;;;;;;;;;5115390;28;20453;-74
2023/04/18 02:59:09;;;;;;;16.77;11.60;;;;;;;;;;5115204;28;20906;-74
2023/04/18 03:01:36;;;;;;;15.43;11.57;;;;;;;;;;5114866;28;20474;-74
2023/04/18 03:04:04;;;;;;;16.70;11.70;;;;;;;;;;5115173;28;20489;-73
2023/04/18 03:06:31;;;;;;;17.47;11.97;;;;;;;;;;5114890;28;20822;-74
2023/04/18 03:09:00;;;;;;;16.37;12.27;;;;;;;;;;5115036;28;20500;-74
2023/04/18 03:11:27;;;;;;;17.47;11.30;;;;;;;;;;5114788;28;20966;-74
2023/04/18 03:13:54;;;;;;;26.13;13.53;;;;;;;;;;5114781;28;20451;-73
2023/04/18 03:16:21;;;;;;;17.93;13.13;;;;;;;;;;5115206;28;20448;-73
2023/04/18 03:18:49;;;;;;;17.80;13.30;;;;;;;;;;5114804;28;20450;-74
2023/04/18 03:21:16;;;;;;;18.50;12.13;;;;;;;;;;5114644;28;20450;-74
2023/04/18 03:23:43;;;;;;;18.93;11.47;;;;;;;;;;5114458;28;20846;-74
2023/04/18 03:26:12;;;;;;;20.23;13.33;;;;;;;;;;5114686;28;20552;-74
2023/04/18 03:28:40;;;;;;;18.20;12.63;;;;;;;;;;5114380;28;20450;-74
2023/04/18 03:31:07;;;;;;;18.80;13.13;;;;;;;;;;5114457;28;20449;-74
2023/04/18 03:33:34;;;;;;;17.60;12.80;;;;;;;;;;5114462;28;20468;-73
2023/04/18 03:36:01;;;;;;;15.27;12.53;;;;;;;;;;5114462;28;20545;-74
2023/04/18 03:38:29;;;;;;;19.83;12.53;;;;;;;;;;5114759;28;20494;-75
2023/04/18 03:40:56;;;;;;;17.17;12.23;;;;;;;;;;5114349;28;20461;-74
2023/04/18 03:43:24;;;;;;;17.07;10.60;;;;;;;;;;5114210;28;20497;-75
2023/04/18 03:45:52;;;;;;;25.00;14.77;;;;;;;;;;5114149;28;20454;-74
2023/04/18 03:48:19;;;;;;;18.70;12.80;;;;;;;;;;5114175;28;20499;-74
2023/04/18 03:50:46;;;;;;;21.00;14.03;;;;;;;;;;5114398;28;20476;-74
2023/04/18 03:53:14;;;;;;;18.10;12.37;;;;;;;;;;5114527;27;20465;-74
2023/04/18 03:55:42;;;;;;;21.73;14.90;;;;;;;;;;5113745;28;20463;-74
2023/04/18 03:58:10;;;;;;;20.73;13.63;;;;;;;;;;5114208;28;20452;-75
2023/04/18 04:00:39;;;;;;;23.17;14.57;;;;;;;;;;5114031;28;20544;-74
2023/04/18 04:03:06;;;;;;;20.27;13.67;;;;;;;;;;5113735;28;20924;-74
2023/04/18 04:05:33;;;;;;;19.77;13.43;;;;;;;;;;5113649;28;20446;-74
2023/04/18 04:08:00;;;;;;;21.90;14.73;;;;;;;;;;5113983;28;20450;-74
2023/04/18 04:10:28;;;;;;;24.80;14.53;;;;;;;;;;5113663;28;20953;-75
2023/04/18 04:12:55;;;;;;;21.83;14.33;;;;;;;;;;5113811;28;20469;-75
2023/04/18 04:15:22;;;;;;;23.07;13.83;;;;;;;;;;5113680;27;20931;-75
2023/04/18 04:17:51;;;;;;;22.77;15.17;;;;;;;;;;5113621;28;20446;-75
2023/04/18 04:20:22;;;;;;;25.20;16.40;;;;;;;;;;5113545;28;20460;-75
2023/04/18 04:22:51;;;;;;;21.17;15.07;;;;;;;;;;5113542;28;20477;-75
2023/04/18 04:25:18;;;;;;;21.80;14.60;;;;;;;;;;5113566;28;20797;-75
2023/04/18 04:27:48;;;;;;;20.33;13.50;;;;;;;;;;5113598;28;20449;-75
2023/04/18 04:30:15;;;;;;;19.03;12.80;;;;;;;;;;5113212;28;20445;-75
2023/04/18 04:32:43;;;;;;;25.57;13.43;;;;;;;;;;5113531;28;20474;-75
2023/04/18 04:35:12;;;;;;;20.90;13.40;;;;;;;;;;5113364;28;20446;-75
2023/04/18 04:37:40;;;;;;;20.40;13.97;;;;;;;;;;5113447;28;20450;-74
2023/04/18 04:40:08;;;;;;;17.60;11.83;;;;;;;;;;5113624;28;20449;-75
2023/04/18 04:42:36;;;;;;;16.50;11.63;;;;;;;;;;5113139;28;20560;-75
2023/04/18 04:45:03;;;;;;;19.40;12.03;;;;;;;;;;5113073;28;20493;-75
2023/04/18 04:47:30;;;;;;;18.10;13.07;;;;;;;;;;5113681;28;20976;-75
2023/04/18 04:49:57;;;;;;;20.37;13.67;;;;;;;;;;5113527;28;20449;-75
2023/04/18 04:52:26;;;;;;;22.50;13.30;;;;;;;;;;5112827;28;20476;-74
2023/04/18 04:54:53;;;;;;;22.10;13.10;;;;;;;;;;5113211;28;20449;-74
2023/04/18 04:57:20;;;;;;;23.57;14.13;;;;;;;;;;5113184;28;20450;-74
2023/04/18 04:59:47;;;;;;;18.63;11.13;;;;;;;;;;5113290;28;20470;-75
2023/04/18 05:02:14;;;;;;;21.80;12.33;;;;;;;;;;5113026;28;20470;-75
2023/04/18 05:04:41;;;;;;;20.60;13.30;;;;;;;;;;5113322;28;20486;-75
2023/04/18 05:07:09;;;;;;;20.30;14.23;;;;;;;;;;5114237;28;20449;-75
2023/04/18 05:09:37;;;;;;;20.67;13.80;;;;;;;;;;5117329;28;20450;-75
2023/04/18 05:12:05;;;;;;;18.80;13.00;;;;;;;;;;5117329;28;20465;-75
2023/04/18 05:14:32;;;;;;;18.00;13.00;;;;;;;;;;5117190;27;20895;-75
2023/04/18 05:16:59;;;;;;;22.57;14.20;;;;;;;;;;5117191;28;20453;-75
2023/04/18 05:19:26;;;;;;;19.63;13.17;;;;;;;;;;5117108;28;20449;-75
2023/04/18 05:21:53;;;;;;;20.97;14.27;;;;;;;;;;5116902;28;20847;-75
2023/04/18 05:24:20;;;;;;;24.23;15.40;;;;;;;;;;5116760;27;20481;-75
2023/04/18 05:26:49;;;;;;;21.83;14.27;;;;;;;;;;5117210;28;20446;-75
2023/04/18 05:29:16;;;;;;;19.40;12.10;;;;;;;;;;5116803;27;20819;-75
2023/04/18 05:31:43;;;;;;;19.10;14.00;;;;;;;;;;5116935;28;20827;-75
2023/04/18 05:34:10;;;;;;;22.57;16.20;;;;;;;;;;5116549;28;20450;-75
2023/04/18 05:36:37;;;;;;;23.93;15.73;;;;;;;;;;5116863;28;20505;-75
2023/04/18 05:39:04;;;;;;;22.07;14.80;;;;;;;;;;5116900;28;20464;-75
2023/04/18 05:41:32;;;;;;;23.80;14.57;;;;;;;;;;5116482;28;20469;-75
2023/04/18 05:44:00;;;;;;;22.27;14.60;;;;;;;;;;5116370;28;20892;-75
2023/04/18 05:46:27;;;;;;;32.80;19.07;;;;;;;;;;5116668;28;20453;-75
2023/04/18 05:48:55;;;;;;;20.47;12.87;;;;;;;;;;5116825;28;20449;-75
2023/04/18 05:51:22;;;;;;;18.53;13.00;;;;;;;;;;5116151;28;21010;-76
2023/04/18 05:53:50;;;;;;;20.30;13.00;;;;;;;;;;5115624;28;20449;-75
2023/04/18 05:56:17;;;;;;;18.27;11.77;;;;;;;;;;5116218;27;20450;-75
2023/04/18 05:58:45;;;;;;;22.47;14.40;;;;;;;;;;5116485;28;20434;-75
2023/04/18 06:01:14;;;;;;;19.80;12.20;;;;;;;;;;5116280;28;20543;-75
2023/04/18 06:03:42;;;;;;;16.33;12.00;;;;;;;;;;5115924;28;20491;-75
2023/04/18 06:06:09;;;;;;;17.33;12.00;;;;;;;;;;5116133;28;20442;-75
2023/04/18 06:08:36;;;;;;;19.07;12.83;;;;;;;;;;5115956;28;20461;-75
2023/04/18 06:11:03;;;;;;;17.47;12.30;;;;;;;;;;5116029;28;20450;-75
2023/04/18 06:13:30;;;;;;;19.03;12.70;;;;;;;;;;5115887;27;20456;-75
2023/04/18 06:15:58;;;;;;;25.03;13.80;;;;;;;;;;5115977;28;20800;-75
2023/04/18 06:18:26;;;;;;;21.43;14.27;;;;;;;;;;5115691;28;20461;-75
2023/04/18 06:20:53;;;;;;;14.33;8.60;;;;;;;;;;5115905;28;20461;-75
2023/04/18 06:23:20;;;;;;;19.43;12.43;;;;;;;;;;5115683;28;20853;-75
2023/04/18 06:25:47;;;;;;;17.50;11.93;;;;;;;;;;5115799;28;20482;-75
2023/04/18 06:28:15;;;;;;;17.43;10.10;;;;;;;;;;5115765;28;20449;-75
2023/04/18 06:30:42;;;;;;;17.93;12.87;;;;;;;;;;5115758;27;20449;-75
2023/04/18 06:33:09;;;;;;;18.40;12.80;;;;;;;;;;5115583;28;20465;-75
2023/04/18 06:35:38;;;;;;;18.33;12.33;;;;;;;;;;5115349;27;20499;-75
2023/04/18 06:38:05;;;;;;;16.13;11.03;;;;;;;;;;5115682;28;20550;-75
2023/04/18 06:40:32;;;;;;;18.47;12.80;;;;;;;;;;5115499;28;20980;-75
2023/04/18 06:43:00;;;;;;;12.57;9.87;;;;;;;;;;5115455;28;20465;-76
2023/04/18 06:45:27;;;;;;;16.33;10.50;;;;;;;;;;5114989;28;20496;-75
2023/04/18 06:47:54;;;;;;;11.30;9.20;;;;;;;;;;5115196;28;20457;-75
2023/04/18 06:50:21;;;;;;;13.77;10.93;;;;;;;;;;5115110;28;20515;-75
2023/04/18 06:52:51;;;;;;;17.20;10.80;;;;;;;;;;5114955;28;20928;-75
2023/04/18 06:55:18;;;;;;;13.17;10.07;;;;;;;;;;5115006;28;20821;-76
2023/04/18 06:57:45;;;;;;;17.47;10.97;;;;;;;;;;5115314;27;20950;-76
2023/04/18 07:00:13;;;;;;;15.20;10.10;;;;;;;;;;5115053;28;20954;-75
2023/04/18 07:02:40;;;;;;;15.97;11.63;;;;;;;;;;5115114;28;20473;-75
2023/04/18 07:05:07;;;;;;;15.70;10.00;;;;;;;;;;5114711;27;20486;-75
2023/04/18 07:07:35;;;;;;;17.00;11.20;;;;;;;;;;5114879;28;20446;-75
2023/04/18 07:10:04;;;;;;;12.47;9.97;;;;;;;;;;5114957;28;20541;-75
2023/04/18 07:12:31;;;;;;;15.27;9.97;;;;;;;;;;5114733;28;20982;-70
2023/04/18 07:14:58;;;;;;;14.40;10.30;;;;;;;;;;5114596;28;20453;-74
2023/04/18 07:17:25;;;;;;;13.50;9.53;;;;;;;;;;5113216;28;20457;-75
2023/04/18 07:19:52;;;;;;;15.50;10.10;;;;;;;;;;5114650;28;20450;-75
2023/04/18 07:22:20;;;;;;;13.73;10.60;;;;;;;;;;5113887;28;20493;-75
2023/04/18 07:24:47;;;;;;;15.53;8.70;;;;;;;;;;5114530;28;21006;-75
2023/04/18 07:27:15;;;;;;;14.20;9.30;;;;;;;;;;5114232;28;20473;-75
2023/04/18 07:29:42;;;;;;;10.77;9.27;;;;;;;;;;5113982;28;20954;-75
2023/04/18 07:32:10;;;;;;;13.10;9.40;;;;;;;;;;5114210;28;20470;-75
2023/04/18 07:34:39;;;;;;;13.93;8.63;;;;;;;;;;5114213;28;20458;-75
2023/04/18 07:37:06;;;;;;;10.07;7.70;;;;;;;;;;5114091;28;20454;-75
2023/04/18 07:39:35;;;;;;;11.20;8.37;;;;;;;;;;5114070;28;20930;-73
2023/04/18 07:42:02;;;;;;;18.57;11.23;;;;;;;;;;5114022;28;20477;-73
2023/04/18 07:44:30;;;;;;;19.03;10.27;;;;;;;;;;5113633;28;20544;-72
2023/04/18 07:46:58;;;;;;;15.80;10.87;;;;;;;;;;5114068;28;20456;-73
2023/04/18 07:49:25;;;;;;;15.23;11.00;;;;;;;;;;5113815;28;20449;-73
2023/04/18 07:51:52;;;;;;;15.77;10.00;;;;;;;;;;5113862;28;20560;-73
2023/04/18 07:54:19;;;;;;;15.00;9.60;;;;;;;;;;5113491;28;20942;-73
2023/04/18 07:56:46;;;;;;;14.43;9.93;;;;;;;;;;5113805;28;20502;-73
2023/04/18 07:59:13;;;;;;;14.73;8.97;;;;;;;;;;5113670;28;20453;-73
2023/04/18 08:01:42;;;;;;;15.93;9.67;;;;;;;;;;5113670;28;20472;-73
2023/04/18 08:04:09;;;;;;;10.47;9.00;;;;;;;;;;5113523;28;20457;-73
2023/04/18 08:06:36;;;;;;;18.80;12.43;;;;;;;;;;5113551;28;20544;-73
2023/04/18 08:09:04;;;;;;;12.80;9.47;;;;;;;;;;5113557;28;20457;-73
2023/04/18 08:11:31;;;;;;;12.93;9.60;;;;;;;;;;5113446;28;20478;-73
2023/04/18 08:13:59;;;;;;;10.30;8.40;;;;;;;;;;5113544;28;20826;-73
2023/04/18 08:16:26;;;;;;;14.20;9.60;;;;;;;;;;5113398;28;20449;-73
2023/04/18 08:18:54;;;;;;;14.17;8.33;;;;;;;;;;5113551;28;20449;-73
2023/04/18 08:21:22;;;;;;;12.43;8.47;;;;;;;;;;5113236;28;20970;-73
2023/04/18 08:23:49;;;;;;;9.47;8.47;;;;;;;;;;5113388;28;20456;-73
2023/04/18 08:26:16;;;;;;;20.30;9.00;;;;;;;;;;5113560;28;20493;-73
2023/04/18 08:28:43;;;;;;;12.13;9.40;;;;;;;;;;5113693;28;20454;-73
2023/04/18 08:31:12;;;;;;;13.57;9.20;;;;;;;;;;5113490;28;20449;-73
2023/04/18 08:33:39;;;;;;;11.83;8.40;;;;;;;;;;5113762;28;20450;-73
2023/04/18 08:36:08;;;;;;;12.03;8.73;;;;;;;;;;5113521;28;20453;-73
2023/04/18 08:38:36;;;;;;;12.40;9.57;;;;;;;;;;5113471;28;20927;-72
2023/04/18 08:41:03;;;;;;;11.13;9.00;;;;;;;;;;5113722;28;20453;-73
2023/04/18 08:43:30;;;;;;;13.77;8.17;;;;;;;;;;5116794;28;20449;-73
2023/04/18 08:46:00;;;;;;;14.87;10.40;;;;;;;;;;5117679;28;20840;-73
2023/04/18 08:48:28;;;;;;;10.10;8.27;;;;;;;;;;5117396;27;20971;-73
2023/04/18 08:50:57;;;;;;;12.83;9.27;;;;;;;;;;5117342;28;20454;-73
2023/04/18 08:53:26;;;;;;;12.23;8.23;;;;;;;;;;5116975;28;20468;-73
2023/04/18 08:55:55;;;;;;;13.40;9.13;;;;;;;;;;5117382;28;20466;-72
2023/04/18 08:58:23;;;;;;;16.60;11.40;;;;;;;;;;5117086;28;20457;-72
2023/04/18 09:00:50;;;;;;;16.93;10.90;;;;;;;;;;5117371;28;20450;-72
2023/04/18 09:03:18;;;;;;;13.57;9.60;;;;;;;;;;5117132;28;20552;-72
2023/04/18 09:06:05;;;;;;;14.20;9.50;;;;;;;;;;5116686;28;20485;-73
2023/04/18 09:08:34;;;;;;;12.33;9.13;;;;;;;;;;5112799;28;20967;-73
2023/04/18 09:11:17;;;;;;;11.40;8.87;;;;;;;;;;5094370;28;20913;-73
2023/04/18 09:13:46;;;;;;;15.67;9.73;;;;;;;;;;5094179;28;20614;-73
2023/04/18 09:16:13;;;;;;;13.33;9.03;;;;;;;;;;5094938;28;20454;-73
2023/04/18 09:18:41;;;;;;;11.90;8.80;;;;;;;;;;5095687;28;20803;-75
2023/04/18 09:21:18;;;;;;;15.87;9.97;;;;;;;;;;5095091;28;20494;-75
2023/04/18 09:23:47;;;;;;;10.00;7.73;;;;;;;;;;5094986;28;20947;-74
2023/04/18 09:26:14;;;;;;;12.20;8.33;;;;;;;;;;5095093;28;20486;-75
2023/04/18 09:28:41;;;;;;;12.93;8.17;;;;;;;;;;5095287;28;20939;-74
2023/04/18 09:31:10;;;;;;;11.47;9.03;;;;;;;;;;5095160;28;20450;-75
2023/04/18 09:33:38;;;;;;;12.30;9.20;;;;;;;;;;5095244;28;20466;-75
2023/04/18 09:36:18;;;;;;;11.10;8.57;;;;;;;;;;5095696;28;20447;-75
2023/04/18 09:38:47;;;;;;;12.77;8.13;;;;;;;;;;5095208;28;20477;-75
2023/04/18 09:41:15;;;;;;;14.43;9.73;;;;;;;;;;5094701;28;20459;-75
2023/04/18 09:43:43;;;;;;;10.13;7.90;;;;;;;;;;5094929;28;20469;-75
2023/04/18 09:46:11;;;;;;;14.40;9.70;;;;;;;;;;5094428;28;20493;-74
2023/04/18 09:48:39;;;;;;;17.90;9.20;;;;;;;;;;5095013;28;20511;-75
2023/04/18 09:51:08;;;;;;;18.63;12.83;;;;;;;;;;5094593;28;21036;-75
2023/04/18 09:53:39;;;;;;;13.50;10.77;;;;;;;;;;5093405;28;20450;-74
2023/04/18 09:56:09;;;;;;;11.60;7.73;;;;;;;;;;5094797;28;20545;-73
2023/04/18 09:58:37;;;;;;;12.93;9.63;;;;;;;;;;5094728;28;20457;-73
2023/04/18 10:01:05;;;;;;;15.67;11.03;;;;;;;;;;5094557;28;20960;-73
2023/04/18 10:03:34;;;;;;;11.67;8.80;;;;;;;;;;5094084;28;20458;-73
2023/04/18 10:06:01;;;;;;;9.27;7.80;;;;;;;;;;5094495;28;20595;-73
2023/04/18 10:08:28;;;;;;;13.70;9.30;;;;;;;;;;5094316;28;20537;-73
2023/04/18 10:10:57;;;;;;;13.30;9.97;;;;;;;;;;5094500;28;21153;-73
2023/04/18 10:13:27;;;;;;;28.90;18.70;;;;;;;;;;5094193;28;20984;-73
2023/04/18 10:15:54;;;;;;;10.60;7.30;;;;;;;;;;5094230;28;20451;-73
2023/04/18 10:18:23;;;;;;;12.70;8.30;;;;;;;;;;5094338;28;20459;-75
2023/04/18 10:20:50;;;;;;;12.60;8.67;;;;;;;;;;5094765;28;20493;-75
2023/04/18 10:23:37;;;;;;;10.70;7.70;;;;;;;;;;5094842;28;20478;-75
2023/04/18 10:26:05;;;;;;;10.70;8.50;;;;;;;;;;5095703;28;21002;-75
2023/04/18 10:28:53;;;;;;;13.43;8.20;;;;;;;;;;5095122;28;20435;-73
2023/04/18 10:31:21;;;;;;;13.40;9.77;;;;;;;;;;5095232;28;21007;-76
2023/04/18 10:33:48;;;;;;;10.67;7.30;;;;;;;;;;5095319;28;20531;-75
2023/04/18 10:36:19;;;;;;;13.43;8.60;;;;;;;;;;5095402;28;20455;-75
2023/04/18 10:38:50;;;;;;;13.93;7.17;;;;;;;;;;5095428;28;20451;-75
2023/04/18 10:41:21;;;;;;;17.13;11.73;;;;;;;;;;5095248;28;20458;-76
2023/04/18 10:44:07;;;;;;;9.43;6.70;;;;;;;;;;5095157;28;20477;-74
2023/04/18 10:46:36;;;;;;;10.23;6.90;;;;;;;;;;5094789;28;21006;-74
2023/04/18 10:49:16;;;;;;;11.53;7.43;;;;;;;;;;5095067;28;20474;-76
2023/04/18 10:51:44;;;;;;;12.57;6.87;;;;;;;;;;5095098;28;20470;-74
2023/04/18 10:54:14;;;;;;;18.43;11.10;;;;;;;;;;5094624;28;20549;-74
2023/04/18 10:56:51;;;;;;;12.50;8.40;;;;;;;;;;5095226;28;20443;-76
2023/04/18 10:59:19;;;;;;;9.60;8.20;;;;;;;;;;5094694;28;20477;-75
2023/04/18 11:01:49;;;;;;;11.73;8.73;;;;;;;;;;5094798;28;20561;-75
2023/04/18 11:04:19;;;;;;;15.20;10.27;;;;;;;;;;5094147;28;20439;-75
2023/04/18 11:06:48;;;;;;;8.23;6.60;;;;;;;;;;5094591;28;20573;-75
2023/04/18 11:09:16;;;;;;;7.80;5.23;;;;;;;;;;5095181;28;20458;-75
2023/04/18 11:11:43;;;;;;;7.00;5.43;;;;;;;;;;5096055;28;20481;-76
2023/04/18 11:14:10;;;;;;;6.73;5.20;;;;;;;;;;5115284;28;20844;-75
2023/04/18 11:16:38;;;;;;;9.67;6.20;;;;;;;;;;5115145;28;20453;-75
2023/04/18 11:19:20;;;;;;;8.23;5.67;;;;;;;;;;5115259;28;20453;-74
2023/04/18 11:21:49;;;;;;;10.07;6.30;;;;;;;;;;5112628;28;20474;-75
2023/04/18 11:24:25;;;;;;;8.87;6.50;;;;;;;;;;5114893;28;20950;-75
2023/04/18 11:26:54;;;;;;;7.70;6.07;;;;;;;;;;5114723;28;20465;-75
2023/04/18 11:29:22;;;;;;;9.10;5.30;;;;;;;;;;5112558;28;20954;-76
2023/04/18 11:31:53;;;;;;;10.13;5.80;;;;;;;;;;5113639;28;21039;-75
2023/04/18 11:34:20;;;;;;;9.03;5.20;;;;;;;;;;5113692;28;20542;-75
2023/04/18 11:36:53;;;;;;;14.20;7.30;;;;;;;;;;5113443;28;20446;-75
2023/04/18 11:39:20;;;;;;;9.53;7.37;;;;;;;;;;5114059;28;20825;-76
2023/04/18 11:41:49;;;;;;;22.57;16.53;;;;;;;;;;5113672;28;20966;-76
2023/04/18 11:44:17;;;;;;;8.60;5.27;;;;;;;;;;5113561;28;20841;-76
2023/04/18 11:46:46;;;;;;;7.03;5.47;;;;;;;;;;5113413;28;20554;-76
2023/04/18 11:49:29;;;;;;;6.67;4.83;;;;;;;;;;5113782;28;20519;-76
2023/04/18 11:51:58;;;;;;;5.50;4.43;;;;;;;;;;5113704;28;20501;-77
2023/04/18 11:54:40;;;;;;;10.30;7.37;;;;;;;;;;5114152;28;20946;-76
2023/04/18 11:57:07;;;;;;;7.83;5.43;;;;;;;;;;5113941;28;20438;-77
2023/04/18 11:59:35;;;;;;;5.27;4.67;;;;;;;;;;5113581;28;20556;-76
2023/04/18 12:02:03;;;;;;;7.33;5.83;;;;;;;;;;5113587;28;20970;-76
2023/04/18 12:04:30;;;;;;;7.00;4.77;;;;;;;;;;5113421;27;20895;-77
2023/04/18 12:06:59;;;;;;;7.13;4.67;;;;;;;;;;5112718;28;20473;-76
2023/04/18 12:09:26;;;;;;;6.97;5.77;;;;;;;;;;5112623;28;20464;-76
2023/04/18 12:11:58;;;;;;;6.00;4.37;;;;;;;;;;5112364;28;20493;-76
2023/04/18 12:14:25;;;;;;;6.50;5.23;;;;;;;;;;5112928;28;20510;-76
2023/04/18 12:16:52;;;;;;;6.23;4.50;;;;;;;;;;5112662;28;20450;-75
2023/04/18 12:19:20;;;;;;;6.53;5.20;;;;;;;;;;5112641;28;20455;-76
2023/04/18 12:21:59;;;;;;;6.33;5.63;;;;;;;;;;5112908;28;20986;-76
2023/04/18 12:24:28;;;;;;;10.57;5.63;;;;;;;;;;5112530;28;20454;-76
2023/04/18 12:26:56;;;;;;;6.13;5.13;;;;;;;;;;5112196;28;20521;-75
2023/04/18 12:29:23;;;;;;;5.90;4.03;;;;;;;;;;5112205;28;20829;-76
2023/04/18 12:31:50;;;;;;;8.00;6.00;;;;;;;;;;5112503;28;21035;-72
2023/04/18 12:34:18;;;;;;;8.43;5.80;;;;;;;;;;5111992;28;20460;-74
2023/04/18 12:36:45;;;;;;;7.23;4.40;;;;;;;;;;5112222;28;20445;-76
2023/04/18 12:39:12;;;;;;;6.67;4.67;;;;;;;;;;5112552;28;20480;-75
2023/04/18 12:41:40;;;;;;;6.70;5.00;;;;;;;;;;5112508;28;20470;-75
2023/04/18 12:44:08;;;;;;;11.00;6.10;;;;;;;;;;5112040;28;20484;-72
2023/04/18 12:46:35;;;;;;;5.57;4.20;;;;;;;;;;5112014;28;21025;-71
2023/04/18 12:49:02;;;;;;;13.57;7.57;;;;;;;;;;5112112;28;20969;-72
2023/04/18 12:51:30;;;;;;;7.13;4.47;;;;;;;;;;5111704;28;20481;-72
2023/04/18 12:53:57;;;;;;;7.47;5.13;;;;;;;;;;5111334;28;20544;-71
2023/04/18 12:56:24;;;;;;;7.20;5.60;;;;;;;;;;5111904;28;20449;-72
2023/04/18 12:58:53;;;;;;;6.93;4.80;;;;;;;;;;5108383;28;20898;-72
2023/04/18 13:01:20;;;;;;;7.30;4.40;;;;;;;;;;5091144;28;20450;-71
2023/04/18 13:03:47;;;;;;;4.70;4.00;;;;;;;;;;5090417;28;21159;-72
2023/04/18 13:06:14;;;;;;;7.13;5.10;;;;;;;;;;5091155;28;20502;-72
2023/04/18 13:08:41;;;;;;;6.63;4.53;;;;;;;;;;5092185;28;20446;-71
2023/04/18 13:11:10;;;;;;;9.17;5.13;;;;;;;;;;5106376;28;20938;-71
2023/04/18 13:13:37;;;;;;;8.40;5.30;;;;;;;;;;5112474;28;20934;-71
2023/04/18 13:16:06;;;;;;;6.97;5.03;;;;;;;;;;5112012;28;20450;-71
2023/04/18 13:18:33;;;;;;;5.27;4.00;;;;;;;;;;5112296;28;20441;-71
2023/04/18 13:21:00;;;;;;;7.50;5.20;;;;;;;;;;5112773;28;20457;-75
2023/04/18 13:23:27;;;;;;;9.57;5.43;;;;;;;;;;5112693;28;20843;-75
2023/04/18 13:25:54;;;;;;;6.43;5.10;;;;;;;;;;5111909;28;20452;-75
2023/04/18 13:28:22;;;;;;;6.20;5.13;;;;;;;;;;5111885;28;20449;-76
2023/04/18 13:30:49;;;;;;;6.80;5.83;;;;;;;;;;5115896;27;20545;-76
2023/04/18 13:33:17;;;;;;;7.67;5.57;;;;;;;;;;5115232;28;20465;-76
2023/04/18 13:35:45;;;;;;;21.37;13.30;;;;;;;;;;5115118;28;20460;-79
2023/04/18 13:38:12;;;;;;;22.90;15.57;;;;;;;;;;5115361;28;20496;-76
2023/04/18 13:40:39;;;;;;;6.73;5.10;;;;;;;;;;5115472;28;20453;-77
2023/04/18 13:43:06;;;;;;;5.97;4.80;;;;;;;;;;5115397;28;20465;-74
2023/04/18 13:45:33;;;;;;;9.70;4.93;;;;;;;;;;5114889;28;20465;-73
2023/04/18 13:48:00;;;;;;;6.57;5.00;;;;;;;;;;5116727;28;20485;-75
2023/04/18 13:50:29;;;;;;;7.77;5.43;;;;;;;;;;5116260;28;20506;-73
2023/04/18 13:52:56;;;;;;;7.93;5.23;;;;;;;;;;5116585;28;20473;-75
2023/04/18 13:55:23;;;;;;;8.60;5.40;;;;;;;;;;5116704;28;20449;-78
2023/04/18 13:57:50;;;;;;;5.83;4.67;;;;;;;;;;5116665;28;20938;-75
2023/04/18 14:00:18;;;;;;;5.80;4.67;;;;;;;;;;5116430;28;20454;-74
2023/04/18 14:02:45;;;;;;;5.33;4.47;;;;;;;;;;5116456;27;20469;-73
2023/04/18 14:05:13;;;;;;;5.33;4.47;;;;;;;;;;5116673;28;20446;-73
2023/04/18 14:07:41;;;;;;;5.30;4.50;;;;;;;;;;5116608;28;20546;-74
2023/04/18 14:10:09;;;;;;;4.03;2.97;;;;;;;;;;5116474;28;20453;-75
2023/04/18 14:12:36;;;;;;;7.60;4.80;;;;;;;;;;5116366;28;20480;-75
2023/04/18 14:15:03;;;;;;;4.23;3.47;;;;;;;;;;5115993;28;20454;-76
2023/04/18 14:17:30;;;;;;;4.60;3.70;;;;;;;;;;5116465;28;20449;-76
2023/04/18 14:19:57;;;;;;;5.80;4.37;;;;;;;;;;5113187;27;20846;-76
2023/04/18 14:22:25;;;;;;;5.73;3.83;;;;;;;;;;5116114;27;20492;-76
2023/04/18 14:24:55;;;;;;;5.20;4.10;;;;;;;;;;5115595;28;20456;-76
2023/04/18 14:27:24;;;;;;;6.23;3.93;;;;;;;;;;5116020;28;20474;-76
2023/04/18 14:29:51;;;;;;;5.00;3.20;;;;;;;;;;5115944;28;20449;-74
2023/04/18 14:32:18;;;;;;;7.83;6.50;;;;;;;;;;5115503;28;20474;-74
2023/04/18 14:34:45;;;;;;;3.73;3.17;;;;;;;;;;5112960;28;20528;-74